createdAt,value
2023-03-29T00:00:35.984Z,100103.91
2023-03-29T00:03:04.958Z,100110.72
2023-03-29T00:05:35.220Z,100107.66
2023-03-29T00:08:04.368Z,100111.75
2023-03-29T00:10:35.057Z,100109.94
2023-03-29T00:13:03.297Z,100116.31
2023-03-29T00:15:30.902Z,100125.38
2023-03-29T00:17:59.410Z,100126.34
2023-03-29T00:20:28.926Z,100138.63
2023-03-29T00:22:56.409Z,100141.69
2023-03-29T00:25:23.967Z,100145.81
2023-03-29T00:27:51.365Z,100139.00
2023-03-29T00:30:19.048Z,100140.78
2023-03-29T00:32:46.964Z,100132.25
2023-03-29T00:35:16.710Z,100138.94
2023-03-29T00:37:47.260Z,100147.22
2023-03-29T00:40:15.626Z,100158.63
2023-03-29T00:42:46.628Z,100156.75
2023-03-29T00:45:19.675Z,100161.03
2023-03-29T00:48:03.009Z,100167.25
2023-03-29T00:50:39.999Z,100168.53
2023-03-29T00:53:15.306Z,100178.19
2023-03-29T00:55:55.205Z,100177.47
2023-03-29T00:58:32.024Z,100178.97
2023-03-29T01:01:08.874Z,100183.50
2023-03-29T01:03:54.586Z,100187.31
2023-03-29T01:06:29.162Z,100191.91
2023-03-29T01:09:01.355Z,100185.84
2023-03-29T01:11:35.046Z,100190.84
2023-03-29T01:14:10.342Z,100192.97
2023-03-29T01:16:39.544Z,100195.13
2023-03-29T01:19:10.511Z,100191.91
2023-03-29T01:21:58.542Z,100197.66
2023-03-29T01:24:29.290Z,100189.34
2023-03-29T01:27:23.583Z,100188.94
2023-03-29T01:30:04.311Z,100196.53
2023-03-29T01:32:44.668Z,100190.22
2023-03-29T01:35:22.085Z,100196.22
2023-03-29T01:37:59.125Z,100210.09
2023-03-29T01:40:31.189Z,100210.56
2023-03-29T01:43:21.985Z,100210.16
2023-03-29T01:46:01.365Z,100223.22
2023-03-29T01:48:36.533Z,100213.63
2023-03-29T01:51:13.035Z,100220.03
2023-03-29T01:53:49.960Z,100220.50
2023-03-29T01:56:21.826Z,100220.53
2023-03-29T01:58:55.065Z,100211.91
2023-03-29T02:01:28.301Z,100208.78
2023-03-29T02:04:03.125Z,100207.00
2023-03-29T02:06:33.071Z,100202.59
2023-03-29T02:09:01.646Z,100205.16
2023-03-29T02:11:29.525Z,100211.69
2023-03-29T02:14:00.138Z,100205.50
2023-03-29T02:16:28.007Z,100208.75
2023-03-29T02:18:57.769Z,100207.00
2023-03-29T02:21:56.012Z,100211.03
2023-03-29T02:24:25.240Z,100207.84
2023-03-29T02:26:52.849Z,100216.28
2023-03-29T02:29:20.364Z,100223.78
2023-03-29T02:31:55.755Z,100223.47
2023-03-29T02:34:30.236Z,100232.28
2023-03-29T02:37:06.931Z,100234.50
2023-03-29T02:39:37.262Z,100235.94
2023-03-29T02:42:07.311Z,100252.72
2023-03-29T02:44:40.882Z,100253.19
2023-03-29T02:47:24.522Z,100247.13
2023-03-29T02:49:52.449Z,100244.25
2023-03-29T02:52:27.545Z,100256.25
2023-03-29T02:54:56.078Z,100271.28
2023-03-29T02:57:28.752Z,100264.22
2023-03-29T02:59:58.966Z,100259.19
2023-03-29T03:02:27.880Z,100262.13
2023-03-29T03:04:59.539Z,100254.56
2023-03-29T03:07:28.756Z,100251.13
2023-03-29T03:09:57.082Z,100252.59
2023-03-29T03:12:26.371Z,100258.88
2023-03-29T03:14:54.748Z,100259.38
2023-03-29T03:17:23.204Z,100268.63
2023-03-29T03:19:51.003Z,100273.94
2023-03-29T03:22:18.477Z,100268.00
2023-03-29T03:24:46.242Z,100259.72
2023-03-29T03:27:14.264Z,100272.09
2023-03-29T03:29:41.666Z,100260.00
2023-03-29T03:32:12.449Z,100260.19
2023-03-29T03:34:41.070Z,100272.03
2023-03-29T03:37:08.542Z,100280.25
2023-03-29T03:39:37.968Z,100275.16
2023-03-29T03:42:08.155Z,100280.66
2023-03-29T03:44:38.055Z,100269.25
2023-03-29T03:47:06.830Z,100277.88
2023-03-29T03:49:34.788Z,100284.28
2023-03-29T03:52:02.486Z,100288.31
2023-03-29T03:54:30.130Z,100291.44
2023-03-29T03:56:59.092Z,100290.09
2023-03-29T03:59:26.764Z,100295.19
2023-03-29T04:01:59.986Z,100292.56
2023-03-29T04:04:28.935Z,100305.25
2023-03-29T04:07:02.702Z,100319.50
2023-03-29T04:09:31.344Z,100310.59
2023-03-29T04:12:01.781Z,100314.53
2023-03-29T04:14:31.742Z,100322.16
2023-03-29T04:16:59.086Z,100330.63
2023-03-29T04:19:27.435Z,100319.22
2023-03-29T04:21:54.815Z,100318.41
2023-03-29T04:24:23.232Z,100333.41
2023-03-29T04:26:50.735Z,100340.88
2023-03-29T04:29:21.024Z,100335.91
2023-03-29T04:31:48.634Z,100345.22
2023-03-29T04:34:16.097Z,100343.53
2023-03-29T04:36:45.046Z,100351.00
2023-03-29T04:39:12.426Z,100351.84
2023-03-29T04:41:42.990Z,100362.25
2023-03-29T04:44:10.743Z,100358.78
2023-03-29T04:46:40.408Z,100353.75
2023-03-29T04:49:09.017Z,100361.81
2023-03-29T04:51:37.309Z,100365.50
2023-03-29T04:54:06.650Z,100369.06
2023-03-29T04:56:34.383Z,100366.66
2023-03-29T04:59:01.747Z,100378.31
2023-03-29T05:01:29.788Z,100386.22
2023-03-29T05:03:57.279Z,100407.94
2023-03-29T05:06:24.685Z,100411.91
2023-03-29T05:08:53.532Z,100426.22
2023-03-29T05:11:24.478Z,100433.06
2023-03-29T05:13:51.858Z,100442.78
2023-03-29T05:16:19.423Z,100429.06
2023-03-29T05:18:46.822Z,100438.72
2023-03-29T05:21:22.089Z,100451.97
2023-03-29T05:23:50.056Z,100447.63
2023-03-29T05:26:17.744Z,100434.47
2023-03-29T05:28:45.217Z,100441.59
2023-03-29T05:31:13.659Z,100438.44
2023-03-29T05:33:43.466Z,100442.38
2023-03-29T05:40:56.589Z,100435.50
2023-03-29T05:43:26.233Z,100431.44
2023-03-29T05:45:54.747Z,100437.41
2023-03-29T05:48:23.966Z,100443.97
2023-03-29T05:50:53.604Z,100434.59
2023-03-29T05:53:23.723Z,100446.53
2023-03-29T05:55:51.714Z,100453.75
2023-03-29T05:58:21.792Z,100454.78
2023-03-29T06:00:51.478Z,100449.34
2023-03-29T06:03:23.805Z,100461.91
2023-03-29T06:06:00.644Z,100460.13
2023-03-29T06:08:29.187Z,100477.22
2023-03-29T06:11:04.577Z,100483.16
2023-03-29T06:13:35.725Z,100480.81
2023-03-29T06:16:06.607Z,100484.47
2023-03-29T06:18:34.994Z,100484.78
2023-03-29T06:21:05.406Z,100484.97
2023-03-29T06:23:34.884Z,100472.16
2023-03-29T06:26:06.597Z,100480.13
2023-03-29T06:28:34.344Z,100489.81
2023-03-29T06:31:03.329Z,100494.31
2023-03-29T13:47:58.818Z,100919.50
2023-03-29T13:50:40.441Z,100911.75
2023-03-29T13:53:23.281Z,100932.44
2023-03-29T13:55:55.095Z,100932.31
2023-03-29T13:58:27.491Z,100945.13
2023-03-29T14:01:02.802Z,100952.38
2023-03-29T14:03:41.277Z,100959.00
2023-03-29T14:06:11.467Z,100956.22
2023-03-29T14:08:45.449Z,100953.22
2023-03-29T14:11:43.644Z,100965.31
2023-03-29T14:14:12.279Z,100963.44
2023-03-29T14:16:41.839Z,100967.34
2023-03-29T14:19:21.672Z,100962.44
2023-03-29T14:21:52.214Z,100980.69
2023-03-29T14:24:27.199Z,100971.97
2023-03-29T14:26:55.073Z,100987.50
2023-03-29T14:29:31.503Z,101001.34
2023-03-29T14:32:10.413Z,100989.38
2023-03-29T14:34:38.610Z,100983.69
2023-03-29T14:37:09.098Z,100983.41
2023-03-29T14:39:37.500Z,100995.16
2023-03-29T14:42:14.474Z,100995.00
2023-03-29T14:44:43.836Z,101006.00
2023-03-29T14:47:26.980Z,101001.19
2023-03-29T14:49:58.916Z,101002.91
2023-03-29T14:52:31.266Z,101008.09
2023-03-29T14:55:02.076Z,101018.28
2023-03-29T14:57:35.679Z,101018.19
2023-03-29T15:00:23.146Z,101019.53
2023-03-29T15:03:02.402Z,101014.53
2023-03-29T15:05:39.920Z,101025.97
2023-03-29T15:08:13.760Z,101035.25
2023-03-29T15:10:45.258Z,101026.47
2023-03-29T15:13:20.033Z,101029.28
2023-03-29T15:18:35.073Z,101034.50
2023-03-29T15:21:03.208Z,101049.72
2023-03-29T15:23:46.862Z,101054.25
2023-03-29T15:26:21.587Z,101047.13
2023-03-29T15:29:03.145Z,101056.19
2023-03-29T15:31:35.787Z,101056.56
2023-03-29T15:34:11.211Z,101050.38
2023-03-29T15:36:48.268Z,101061.75
2023-03-29T15:39:17.888Z,101051.91
2023-03-29T15:41:48.913Z,101057.63
2023-03-29T15:44:17.762Z,101058.25
2023-03-29T15:46:45.957Z,101065.22
2023-03-29T15:49:14.380Z,101064.97
2023-03-29T15:51:44.143Z,101064.94
2023-03-29T15:54:11.709Z,101074.75
2023-03-29T15:56:50.376Z,101081.56
2023-03-29T15:59:18.229Z,101081.34
2023-03-29T16:01:56.770Z,101095.59
2023-03-29T16:04:25.447Z,101085.69
2023-03-29T16:06:55.472Z,101088.16
2023-03-29T16:09:25.559Z,101087.81
2023-03-29T16:11:54.534Z,101097.66
2023-03-29T16:14:27.906Z,101096.94
2023-03-29T16:16:57.379Z,101104.63
2023-03-29T16:19:26.740Z,101098.16
2023-03-29T16:21:55.870Z,101101.38
2023-03-29T16:24:26.715Z,101102.84
2023-03-29T16:26:57.055Z,101105.47
2023-03-29T16:29:25.759Z,101094.16
2023-03-29T16:31:54.153Z,101110.34
2023-03-29T16:34:23.021Z,101099.81
2023-03-29T16:36:50.922Z,101111.72
2023-03-29T16:39:19.939Z,101118.97
2023-03-29T16:41:48.544Z,101104.53
2023-03-29T16:44:19.577Z,101111.13
2023-03-29T16:46:49.262Z,101108.03
2023-03-29T16:49:19.587Z,101118.75
2023-03-29T16:51:50.375Z,101117.28
2023-03-29T16:54:19.014Z,101114.31
2023-03-29T16:56:47.146Z,101124.88
2023-03-29T16:59:15.496Z,101122.59
2023-03-29T17:01:44.500Z,101122.38
2023-03-29T17:04:12.753Z,101134.56
2023-03-29T17:06:41.016Z,101133.25
2023-03-29T17:09:08.732Z,101141.22
2023-03-29T17:11:36.198Z,101145.81
2023-03-29T17:14:04.110Z,101149.63
2023-03-29T17:16:31.935Z,101143.47
2023-03-29T17:19:02.534Z,101147.25
2023-03-29T17:21:30.880Z,101152.91
2023-03-29T17:23:58.791Z,101153.38
2023-03-29T17:26:27.025Z,101157.31
2023-03-29T17:28:54.716Z,101161.97
2023-03-29T17:31:22.880Z,101154.72
2023-03-29T17:33:52.345Z,101159.22
2023-03-29T17:36:24.147Z,101164.63
2023-03-29T17:38:52.047Z,101159.53
2023-03-29T17:41:19.571Z,101161.97
2023-03-29T17:43:52.179Z,101159.78
2023-03-29T17:46:23.274Z,101156.03
2023-03-29T17:48:53.694Z,101153.53
2023-03-29T17:51:21.277Z,101150.91
2023-03-29T17:53:48.734Z,101141.72
2023-03-29T17:56:16.984Z,101148.34
2023-03-29T17:58:45.052Z,101142.63
2023-03-29T18:01:19.713Z,101153.19
2023-03-29T18:03:48.535Z,101153.25
2023-03-29T18:06:20.370Z,101163.09
2023-03-29T18:08:48.557Z,101156.16
2023-03-29T18:11:22.422Z,101158.16
2023-03-29T18:13:51.437Z,101159.28
2023-03-29T18:16:22.116Z,101161.13
2023-03-29T18:18:51.127Z,101159.72
2023-03-29T18:21:19.046Z,101153.97
2023-03-29T18:23:49.331Z,101171.03
2023-03-29T18:26:17.072Z,101163.50
2023-03-29T18:28:48.928Z,101160.91
2023-03-29T18:31:17.231Z,101165.47
2023-03-29T18:33:46.973Z,101156.50
2023-03-29T18:36:15.002Z,101151.72
2023-03-29T18:38:43.985Z,101157.06
2023-03-29T18:41:13.770Z,101148.28
2023-03-29T18:43:43.168Z,101143.88
2023-03-29T18:46:10.904Z,101147.44
2023-03-29T18:48:42.174Z,101152.25
2023-03-29T18:51:11.797Z,101157.06
2023-03-29T18:53:42.212Z,101162.75
2023-03-29T18:56:10.184Z,101159.72
2023-03-29T18:58:37.825Z,101151.06
2023-03-29T19:01:06.693Z,101165.66
2023-03-29T19:03:35.873Z,101171.19
2023-03-29T19:06:04.249Z,101181.84
2023-03-29T19:08:36.707Z,101173.09
2023-03-29T19:11:07.585Z,101186.88
2023-03-29T19:13:35.676Z,101170.81
2023-03-29T19:16:04.863Z,101163.78
2023-03-29T19:18:33.241Z,101177.00
2023-03-29T19:21:01.116Z,101173.84
2023-03-29T19:23:28.763Z,101166.00
2023-03-29T19:25:58.603Z,101169.56
2023-03-29T19:28:27.519Z,101176.28
2023-03-29T19:30:56.678Z,101176.34
2023-03-29T19:33:24.837Z,101173.28
2023-03-29T19:35:52.988Z,101172.59
2023-03-29T19:38:21.588Z,101171.03
2023-03-29T19:40:51.656Z,101169.22
2023-03-29T19:43:20.822Z,101164.50
2023-03-29T19:45:50.157Z,101161.25
2023-03-29T19:48:23.680Z,101159.97
2023-03-29T19:50:52.087Z,101154.13
2023-03-29T19:53:21.342Z,101158.09
2023-03-29T19:55:49.755Z,101178.31
2023-03-29T19:58:19.575Z,101164.75
2023-03-29T20:00:47.179Z,101165.53
2023-03-29T20:03:17.971Z,101171.91
2023-03-29T20:05:46.888Z,101177.84
2023-03-29T20:08:14.298Z,101185.13
2023-03-29T20:10:42.643Z,101175.75
2023-03-29T20:13:10.768Z,101175.94
2023-03-29T20:15:38.335Z,101193.63
2023-03-29T20:18:06.227Z,101198.28
2023-03-29T20:20:35.825Z,101197.41
2023-03-29T20:23:05.226Z,101195.13
2023-03-29T20:25:35.752Z,101201.81
2023-03-29T20:28:04.027Z,101206.88
2023-03-29T20:30:32.056Z,101188.19
2023-03-29T20:33:01.085Z,101195.41
2023-03-29T20:35:28.593Z,101197.94
2023-03-29T20:37:56.452Z,101194.56
2023-03-29T20:40:23.928Z,101201.81
2023-03-29T20:42:51.475Z,101197.44
2023-03-29T20:45:20.748Z,101203.50
2023-03-29T20:47:58.021Z,101211.47
2023-03-29T20:50:28.907Z,101215.84
2023-03-29T20:52:57.184Z,101207.56
2023-03-29T20:55:24.959Z,101205.72
2023-03-29T20:58:12.327Z,101203.78
2023-03-29T21:00:40.524Z,101217.09
2023-03-29T21:03:08.860Z,101191.09
2023-03-29T21:05:37.073Z,101194.84
2023-03-29T21:08:04.607Z,101196.25
2023-03-29T21:10:32.180Z,101190.91
2023-03-29T21:13:00.411Z,101190.19
2023-03-29T21:15:30.763Z,101205.06
2023-03-29T21:17:58.959Z,101195.69
2023-03-29T21:20:27.749Z,101199.63
2023-03-29T21:22:55.374Z,101196.13
2023-03-29T21:25:22.804Z,101195.53
2023-03-29T21:27:50.362Z,101196.69
2023-03-29T21:30:17.861Z,101188.50
2023-03-29T21:32:45.776Z,101186.94
2023-03-29T21:35:13.531Z,101178.59
2023-03-29T21:37:41.470Z,101180.00
2023-03-29T21:40:10.800Z,101171.84
2023-03-29T21:42:39.098Z,101184.78
2023-03-29T21:45:07.150Z,101180.69
2023-03-29T21:47:35.190Z,101186.72
2023-03-29T21:50:03.080Z,101179.59
2023-03-29T21:52:30.916Z,101181.75
2023-03-29T21:54:59.198Z,101177.41
2023-03-29T21:57:26.798Z,101172.69
2023-03-29T21:59:56.029Z,101189.25
2023-03-29T22:02:23.550Z,101198.31
2023-03-29T22:04:51.339Z,101188.03
2023-03-29T22:07:22.833Z,101198.19
2023-03-29T22:09:50.450Z,101200.56
2023-03-29T22:12:19.440Z,101201.28
2023-03-29T22:14:46.822Z,101199.78
2023-03-29T22:17:16.124Z,101206.19
2023-03-29T22:19:43.571Z,101211.00
2023-03-29T22:22:14.337Z,101209.91
2023-03-29T22:24:42.362Z,101207.34
2023-03-29T22:27:15.732Z,101207.25
2023-03-29T22:29:43.435Z,101213.75
2023-03-29T22:32:11.008Z,101209.91
2023-03-29T22:34:39.500Z,101207.69
2023-03-29T22:37:06.962Z,101208.50
2023-03-29T22:39:37.682Z,101215.75
2023-03-29T22:42:05.117Z,101223.13
2023-03-29T22:44:33.986Z,101219.81
2023-03-29T22:47:02.125Z,101217.03
2023-03-29T22:49:29.818Z,101219.53
2023-03-29T22:51:57.339Z,101214.22
2023-03-29T22:54:24.887Z,101221.34
2023-03-29T22:56:52.372Z,101221.84
2023-03-29T22:59:21.426Z,101221.44
2023-03-29T23:01:50.078Z,101210.00
2023-03-29T23:04:18.209Z,101228.53
2023-03-29T23:06:46.367Z,101222.84
2023-03-29T23:09:15.994Z,101228.38
2023-03-29T23:11:44.494Z,101219.91
2023-03-29T23:14:12.150Z,101227.03
2023-03-29T23:16:39.727Z,101228.25
2023-03-29T23:19:07.895Z,101226.91
2023-03-29T23:21:37.074Z,101229.56
2023-03-29T23:24:19.791Z,101230.22
2023-03-29T23:26:49.107Z,101227.91
2023-03-29T23:29:16.596Z,101225.34
2023-03-29T23:31:44.496Z,101218.50
2023-03-29T23:34:13.532Z,101222.34
2023-03-29T23:36:41.086Z,101221.84
2023-03-29T23:39:10.036Z,101238.91
2023-03-29T23:41:40.263Z,101229.81
2023-03-29T23:44:10.395Z,101233.56
2023-03-29T23:46:37.850Z,101241.94
2023-03-29T23:49:05.432Z,101232.25
2023-03-29T23:51:35.185Z,101228.53
2023-03-29T23:54:03.003Z,101229.22
2023-03-29T23:56:38.806Z,101225.13
2023-03-29T23:59:06.456Z,101228.50
